Aérodrome :







RETROUVEZ-NOUS SUR...

 
LOGIN :

S'inscrire | Disclaimer

   EN    FR    IT 

 









Légende :    VFR   VFR Marginal   IFR   IFR Intensif   IFR Très Intensif
Visi : 
Plafond : 
>= 8 km
>= 3000ft
5 à 8 km
1000 à 3000 ft
1500m à 5 km
500 à 1000 ft
800 à 1500m
200 à 500 ft
< 800m
< 200 ft
Symboles :   Orages  Brouillard  Fortes neiges  Fortes précipitations  Vent > 20 kt






- Altitude de l'aérodrome : 232 ft
- Code IATA : YQM


CYQM - Greater Moncton International

DERNIER METAR :
  • 100749Z 17023G34KT 7SM -RA FEW010 OVC025 11/10 A2955 RMK SF2SC6 PRESFR SLP010 DENSITY ALT 300FT

METARs EXPIRÉS :
  • 100734Z 16025G34KT 7SM RA SCT008 OVC015 11/10 A2957 RMK SF3SC5 PRESFR SLP018 DENSITY ALT 300FT
  • 100710Z 17024G39KT 8SM -RA FEW008 OVC015 11/10 A2961 RMK SF2SC6 PRESFR SLP030
  • 100700Z 17025G35KT 7SM RA FEW008 OVC025 11/10 A2962 RMK SF2SC6 PRESFR SLP033
  • 100649Z 17021G29KT 8SM RA FEW008 OVC015 11/10 A2963 RMK SF2SC6 PRESFR SLP038
  • 100643Z 17019G29KT 7SM -RA SCT005 BKN012 OVC022 11/10 A2965 RMK SF3SF3SC2 PRESFR SLP043
  • 100635Z 17017G30KT 7SM RA FEW006 BKN014 OVC025 11/10 A2966 RMK SF2SF4SC2 SLP046
  • 100614Z 17020G31KT 8SM -RA SCT005 BKN014 OVC025 11/10 A2967 RMK SF3SF2SC3 SLP052
  • 100600Z 16023G37KT 8SM RA FEW006 BKN013 BKN022 11/10 A2968 RMK SF2SF3SC3 PRESFR SLP056
  • 100525Z 16019G37KT 8SM RA FEW006 BKN012 BKN032 OVC080 10/10 A2971 RMK SF2SF3SC2AS1 SLP064
  • 100500Z 16022G39KT 8SM -RA SCT005 BKN011 OVC070 10/09 A2972 RMK SF3SF3AS2 PRESFR SLP069

TAF TAF CYQM
Valide du 10 à 06h jusqu'au 11 à 06h UTC


100538Z 1006/1106 16025G40KT P6SM -RA SCT005 BKN015 OVC070
TEMPO 1006/1012 2SM RA BR OVC005
BECMG 1006/1008 18025G35KT
FM101200 22015G25KT P6SM SCT015 BKN030
TEMPO 1012/1018 P6SM -SHRA OVC015
FM101800 22020G30KT P6SM SCT020 BKN080
TEMPO 1018/1024 BKN020
FM110000 22015G25KT P6SM OVC015
FM110300 23015G25KT P6SM -RA OVC015 RMK NXT FCST BY 101200Z



MET'MAP, la Météo Aéronautique d'un coup d'oeil ! - Copyright ORBIFLY Décembre 2007 - Disclaimer

ORBIFLY MET'MAP TEAM :

Programmation & Développement : Alexandra Zaïnal
Sur une idée originale de : Baudouin d'Aumeries
Assistance à la programmation : Marc-Olivier Méhu
Soutien technique & logistique : Manuel Goepfert

Contact : metmap@orbifly.com




SOURCES & CREDITS :

   NOAA